LLIB

Ben Ya'akov Airport

Rosh Pina, Israel
TAF LLIB 241107Z 2412/2512 34012KT CAVOK BECMG 2415/2417 VRB03KT TEMPO 2502/2506 6000 FEW015 BECMG 2506/2508 18006KT 9999 FEW030 TX37/2412Z TN20/2504Z
Issued Valid From Valid To
Sep-24 @ 11:07 UTC
(9 hours ago)
Sep-24 @ 12:00 UTC
(8 hours ago)
Sep-25 @ 12:00 UTC
(in 16 hours)
Expired Click to View Sep-24 @ 12:00 to Sep-24 @ 15:00
TAF LLIB 241107Z 2412/2512 34012KT CAVOK
Wind Visibility Clouds Conditions
340° at 12 knots 10,000+ meters
  • No significant clouds
Becoming Sep-24 @ 15:00 to Sep-25 @ 06:00
BECMG 2415/2417 VRB03KT
Wind Visibility Clouds Conditions
Variable at 3 knots 10,000+ meters
  • No significant clouds
Temporary Sep-25 @ 02:00 to Sep-25 @ 06:00
TEMPO 2502/2506 6000 FEW015
Visibility Clouds
6,003 meters
  • Few at 1,500' AGL
Becoming Sep-25 @ 06:00 to Sep-25 @ 12:00
BECMG 2506/2508 18006KT 9999 FEW030 TX37/2412Z TN20/2504Z
Wind Visibility Clouds Conditions
180° at 6 knots 10,000+ meters
  • Few at 3,000' AGL
TAF LLIB 241107Z 2412/2512 34012KT CAVOK BECMG 2415/2417 VRB03KT TEMPO 2502/2506 6000 FEW015 BECMG 2506/2508 18006KT 9999 FEW030 TX37/2412Z TN20/2504Z
Issued Sep-24 @ 11:07 UTC
(9 hours ago)
Valid From Sep-24 @ 12:00 UTC
(8 hours ago)
Valid To Sep-25 @ 12:00 UTC
(in 16 hours)
Sep-24 @ 12:00 - Sep-24 @ 15:00
Wind Visibility
340° at 12 knots 10,000+ meters
Clouds
  • No significant clouds
Conditions
Becoming Sep-24 @ 15:00 - Sep-25 @ 06:00
Wind Visibility
Variable at 3 knots 10,000+ meters
Clouds
  • No significant clouds
Conditions
Temporary Sep-25 @ 02:00 - Sep-25 @ 06:00
Clouds
  • Few at 1,500' AGL
Becoming Sep-25 @ 06:00 - Sep-25 @ 12:00
Wind Visibility
180° at 6 knots 10,000+ meters
Clouds
  • Few at 3,000' AGL
Conditions